createdAt,value
2023-05-25T00:01:02.444Z,80.71
2023-05-25T00:03:31.478Z,80.04
2023-05-25T00:05:58.772Z,80.21
2023-05-25T00:08:25.311Z,78.76
2023-05-25T00:10:51.979Z,78.67
2023-05-25T00:13:18.600Z,80.18
2023-05-25T00:15:45.465Z,81.78
2023-05-25T00:18:13.225Z,81.56
2023-05-25T00:20:40.010Z,81.52
2023-05-25T00:23:06.699Z,81.68
2023-05-25T00:25:33.226Z,80.47
2023-05-25T00:27:59.909Z,80.23
2023-05-25T00:30:26.460Z,79.97
2023-05-25T00:32:54.035Z,79.78
2023-05-25T00:35:20.717Z,78.31
2023-05-25T00:37:47.662Z,79.93
2023-05-25T00:40:18.417Z,80.06
2023-05-25T00:42:45.066Z,80.69
2023-05-25T00:45:11.916Z,81.25
2023-05-25T00:47:40.063Z,81.66
2023-05-25T00:50:09.348Z,80.42
2023-05-25T00:52:36.045Z,80.43
2023-05-25T00:55:03.836Z,79.08
2023-05-25T00:57:34.265Z,79.08
2023-05-25T01:00:02.600Z,79.36
2023-05-25T01:02:29.594Z,79.36
2023-05-25T01:04:59.878Z,79.67
2023-05-25T01:07:27.183Z,79.62
2023-05-25T01:10:06.753Z,79.42
2023-05-25T01:12:37.695Z,77.94
2023-05-25T01:15:05.589Z,78.72
2023-05-25T01:17:32.363Z,78.96
2023-05-25T01:20:09.720Z,79.00
2023-05-25T01:22:45.304Z,78.22
2023-05-25T01:25:43.239Z,79.00
2023-05-25T01:28:17.854Z,77.06
2023-05-25T01:30:47.335Z,76.67
2023-05-25T01:33:14.294Z,76.39
2023-05-25T01:35:42.084Z,75.80
2023-05-25T01:38:09.833Z,75.79
2023-05-25T01:40:36.460Z,77.71
2023-05-25T01:43:03.051Z,78.22
2023-05-25T01:45:33.015Z,76.62
2023-05-25T01:48:15.948Z,78.85
2023-05-25T01:50:58.044Z,74.99
2023-05-25T01:53:36.627Z,76.25
2023-05-25T01:56:08.643Z,76.03
2023-05-25T01:58:39.778Z,74.67
2023-05-25T02:01:08.776Z,75.34
2023-05-25T02:03:37.448Z,76.54
2023-05-25T02:06:04.600Z,75.11
2023-05-25T02:08:31.263Z,74.59
2023-05-25T02:10:57.815Z,75.33
2023-05-25T02:13:24.467Z,74.93
2023-05-25T02:15:51.321Z,74.69
2023-05-25T02:18:17.939Z,75.46
2023-05-25T02:20:45.094Z,74.24
2023-05-25T02:23:11.785Z,72.58
2023-05-25T02:25:38.315Z,74.43
2023-05-25T02:28:05.168Z,75.75
2023-05-25T02:30:31.633Z,75.21
2023-05-25T02:32:58.204Z,74.99
2023-05-25T02:35:24.782Z,74.73
2023-05-25T02:37:51.400Z,76.16
2023-05-25T02:40:18.250Z,76.22
2023-05-25T02:42:44.865Z,76.59
2023-05-25T02:45:11.815Z,75.95
2023-05-25T02:47:38.479Z,76.18
2023-05-25T02:50:05.607Z,76.23
2023-05-25T02:52:32.701Z,76.81
2023-05-25T02:54:59.219Z,73.71
2023-05-25T02:57:25.963Z,74.79
2023-05-25T02:59:52.746Z,75.51
2023-05-25T03:02:21.048Z,74.73
2023-05-25T03:04:49.880Z,72.95
2023-05-25T03:07:16.424Z,74.89
2023-05-25T03:09:42.940Z,75.20
2023-05-25T03:12:09.471Z,74.84
2023-05-25T03:14:35.999Z,75.30
2023-05-25T03:17:02.527Z,74.76
2023-05-25T03:19:29.128Z,75.77
2023-05-25T03:21:55.678Z,75.77
2023-05-25T03:24:22.147Z,75.98
2023-05-25T03:26:48.625Z,76.23
2023-05-25T03:29:15.156Z,76.12
2023-05-25T03:31:41.652Z,75.40
2023-05-25T03:34:08.178Z,75.87
2023-05-25T03:36:34.864Z,76.23
2023-05-25T03:39:01.361Z,74.86
2023-05-25T03:41:27.888Z,73.84
2023-05-25T03:43:54.461Z,76.26
2023-05-25T03:46:21.146Z,76.50
2023-05-25T03:48:47.873Z,75.88
2023-05-25T03:51:14.395Z,75.34
2023-05-25T03:53:40.885Z,73.70
2023-05-25T03:56:07.572Z,74.83
2023-05-25T03:58:34.027Z,74.96
2023-05-25T04:01:00.946Z,74.66
2023-05-25T04:03:28.200Z,73.72
2023-05-25T04:05:54.768Z,72.52
2023-05-25T04:08:22.334Z,73.47
2023-05-25T04:10:48.763Z,72.71
2023-05-25T04:13:15.530Z,72.55
2023-05-25T04:15:42.135Z,73.06
2023-05-25T04:18:08.870Z,71.82
2023-05-25T04:20:36.098Z,71.72
2023-05-25T04:23:02.664Z,71.06
2023-05-25T04:25:29.867Z,73.49
2023-05-25T04:27:56.796Z,72.67
2023-05-25T04:30:23.647Z,73.90
2023-05-25T04:32:50.497Z,71.91
2023-05-25T04:35:21.008Z,74.30
2023-05-25T04:37:48.357Z,74.43
2023-05-25T04:40:14.890Z,73.89
2023-05-25T04:42:41.731Z,73.67
2023-05-25T04:45:12.006Z,73.27
2023-05-25T04:47:41.141Z,72.19
2023-05-25T04:50:10.009Z,74.56
2023-05-25T04:52:36.821Z,75.38
2023-05-25T04:55:03.488Z,76.77
2023-05-25T04:57:31.526Z,76.57
2023-05-25T04:59:58.744Z,76.11
2023-05-25T05:02:25.920Z,75.23
2023-05-25T05:04:53.817Z,74.84
2023-05-25T05:07:22.087Z,74.26
2023-05-25T05:09:49.693Z,75.17
2023-05-25T05:12:16.248Z,74.44
2023-05-25T05:14:42.802Z,73.22
2023-05-25T05:17:09.323Z,71.99
2023-05-25T05:19:35.905Z,72.62
2023-05-25T05:22:02.429Z,70.76
2023-05-25T05:24:28.939Z,70.67
2023-05-25T05:26:58.899Z,71.65
2023-05-25T05:29:26.821Z,71.46
2023-05-25T05:31:55.049Z,69.22
2023-05-25T05:34:22.276Z,66.31
2023-05-25T05:36:57.533Z,68.75
2023-05-25T05:39:24.970Z,68.99
2023-05-25T05:41:51.731Z,67.30
2023-05-25T05:44:18.803Z,65.86
2023-05-25T05:46:45.603Z,66.18
2023-05-25T05:49:12.172Z,64.85
2023-05-25T05:51:38.700Z,64.86
2023-05-25T05:54:05.587Z,65.11
2023-05-25T05:56:32.140Z,64.83
2023-05-25T05:58:58.716Z,66.70
2023-05-25T06:01:25.561Z,66.77
2023-05-25T06:03:54.337Z,67.63
2023-05-25T06:06:21.676Z,66.41
2023-05-25T06:08:48.345Z,66.91
2023-05-25T06:11:14.864Z,64.46
2023-05-25T06:13:41.439Z,64.47
2023-05-25T06:16:08.267Z,64.95
2023-05-25T06:18:34.944Z,66.19
2023-05-25T06:21:02.262Z,64.27
2023-05-25T06:23:28.788Z,64.84
2023-05-25T06:25:55.373Z,65.05
2023-05-25T06:28:21.868Z,65.66
2023-05-25T06:30:48.440Z,65.59
2023-05-25T06:33:14.972Z,64.40
2023-05-25T06:35:42.032Z,64.00
2023-05-25T06:38:08.973Z,62.09
2023-05-25T06:40:35.530Z,60.49
2023-05-25T06:43:02.278Z,60.52
2023-05-25T06:45:28.914Z,59.84
2023-05-25T06:47:55.565Z,59.96
2023-05-25T06:50:22.368Z,60.56
2023-05-25T06:52:49.037Z,61.02
2023-05-25T06:55:15.654Z,61.70
2023-05-25T06:57:43.713Z,61.83
2023-05-25T07:00:13.813Z,62.39
2023-05-25T07:02:40.383Z,64.14
2023-05-25T07:05:07.281Z,62.04
2023-05-25T07:07:33.893Z,61.42
2023-05-25T07:10:02.844Z,60.58
2023-05-25T07:12:29.358Z,60.51
2023-05-25T07:14:57.783Z,57.79
2023-05-25T07:17:24.311Z,56.79
2023-05-25T07:19:51.076Z,56.15
2023-05-25T07:22:19.095Z,55.55
2023-05-25T07:24:46.864Z,54.83
2023-05-25T07:27:14.272Z,52.85
2023-05-25T07:29:41.231Z,51.42
2023-05-25T07:32:07.897Z,51.37
2023-05-25T07:34:34.984Z,49.12
2023-05-25T07:37:01.639Z,48.97
2023-05-25T07:39:28.144Z,46.64
2023-05-25T07:41:54.750Z,47.44
2023-05-25T07:44:21.287Z,46.38
2023-05-25T07:46:47.981Z,45.66
2023-05-25T07:49:16.382Z,45.36
2023-05-25T07:51:47.074Z,44.50
2023-05-25T07:54:13.651Z,44.02
2023-05-25T07:56:40.228Z,43.90
2023-05-25T07:59:06.839Z,43.14
2023-05-25T08:01:33.425Z,42.01
2023-05-25T08:04:00.261Z,43.15
2023-05-25T08:06:27.098Z,44.24
2023-05-25T08:08:53.834Z,42.87
2023-05-25T08:11:25.089Z,42.54
2023-05-25T08:13:51.715Z,45.10
2023-05-25T08:16:18.959Z,45.02
2023-05-25T08:18:46.901Z,44.94
2023-05-25T08:21:13.936Z,47.18
2023-05-25T08:23:42.577Z,48.17
2023-05-25T08:26:26.009Z,46.78
2023-05-25T08:28:57.214Z,46.43
2023-05-25T08:31:23.820Z,47.34
2023-05-25T08:33:50.434Z,47.43
2023-05-25T08:36:16.904Z,46.53
2023-05-25T08:38:43.419Z,45.86
2023-05-25T08:41:12.092Z,43.81
2023-05-25T08:43:38.771Z,42.42
2023-05-25T08:46:07.336Z,40.12
2023-05-25T08:48:42.428Z,40.29
2023-05-25T08:51:11.957Z,39.26
2023-05-25T08:53:40.712Z,40.69
2023-05-25T08:56:20.607Z,44.61
2023-05-25T08:58:57.868Z,46.08
2023-05-25T09:01:28.823Z,46.13
2023-05-25T09:03:57.233Z,44.46
2023-05-25T09:06:27.046Z,43.97
2023-05-25T09:08:54.741Z,44.70
2023-05-25T09:11:36.030Z,40.94
2023-05-25T09:14:04.663Z,39.08
2023-05-25T09:16:32.417Z,40.65
2023-05-25T09:18:59.700Z,39.95
2023-05-25T09:21:26.466Z,40.85
2023-05-25T09:23:53.171Z,39.56
2023-05-25T09:26:20.084Z,39.58
2023-05-25T09:28:47.975Z,42.13
2023-05-25T09:31:16.331Z,41.53
2023-05-25T09:33:44.178Z,42.72
2023-05-25T09:36:12.795Z,42.02
2023-05-25T09:38:41.061Z,43.16
2023-05-25T09:41:08.006Z,43.82
2023-05-25T09:43:43.242Z,43.72
2023-05-25T09:46:14.095Z,43.93
2023-05-25T09:48:41.343Z,39.72
2023-05-25T09:51:08.810Z,38.80
2023-05-25T09:53:35.504Z,38.83
2023-05-25T09:56:04.097Z,38.69
2023-05-25T09:58:31.104Z,39.79
2023-05-25T10:00:58.292Z,40.82
2023-05-25T10:03:24.979Z,41.15
2023-05-25T10:05:53.902Z,41.48
2023-05-25T10:08:21.796Z,40.20
2023-05-25T10:10:50.214Z,41.78
2023-05-25T10:13:21.680Z,43.64
2023-05-25T10:15:52.317Z,42.13
2023-05-25T10:18:25.691Z,41.35
2023-05-25T10:20:57.763Z,40.60
2023-05-25T10:23:25.647Z,41.70
2023-05-25T10:25:59.661Z,41.75
2023-05-25T10:28:32.183Z,41.13
2023-05-25T10:30:59.675Z,40.96
2023-05-25T10:33:27.008Z,41.46
2023-05-25T10:36:03.031Z,40.71
2023-05-25T10:38:35.809Z,40.48
2023-05-25T10:41:04.553Z,40.74
2023-05-25T10:43:32.025Z,41.16
2023-05-25T10:45:58.923Z,42.25
2023-05-25T10:48:39.311Z,43.78
2023-05-25T10:51:08.344Z,43.45
2023-05-25T10:53:36.650Z,41.94
2023-05-25T10:56:07.446Z,40.80
2023-05-25T10:58:34.438Z,40.45
2023-05-25T11:01:09.663Z,38.76
2023-05-25T11:03:45.767Z,36.59
2023-05-25T11:06:13.826Z,38.87
2023-05-25T11:08:59.365Z,42.35
2023-05-25T11:11:59.642Z,40.75
2023-05-25T11:14:38.383Z,44.24
2023-05-25T11:17:14.379Z,41.46
2023-05-25T11:19:52.141Z,40.94
2023-05-25T11:22:36.384Z,40.56
2023-05-25T11:25:36.862Z,41.09
2023-05-25T11:28:12.012Z,41.75
2023-05-25T11:30:41.442Z,41.07
2023-05-25T11:33:09.058Z,40.43
2023-05-25T11:35:38.966Z,39.32
2023-05-25T11:38:07.997Z,38.70
2023-05-25T11:40:36.349Z,39.32
2023-05-25T11:43:04.900Z,39.90
2023-05-25T11:45:34.451Z,39.80
2023-05-25T11:48:01.147Z,42.62
2023-05-25T11:50:28.314Z,41.77
2023-05-25T11:52:55.568Z,41.52
2023-05-25T11:55:22.384Z,40.52
2023-05-25T11:57:55.931Z,39.79
2023-05-25T12:00:28.412Z,40.76
2023-05-25T12:02:56.207Z,39.57
2023-05-25T12:05:23.395Z,38.92
2023-05-25T12:07:50.489Z,39.80
2023-05-25T12:10:17.471Z,42.53
2023-05-25T12:12:45.054Z,42.59
2023-05-25T12:15:14.890Z,42.02
2023-05-25T12:17:43.232Z,44.73
2023-05-25T12:20:15.276Z,41.25
2023-05-25T12:22:43.283Z,38.90
2023-05-25T12:25:11.265Z,40.62
2023-05-25T12:27:38.745Z,37.52
2023-05-25T12:30:08.058Z,38.37
2023-05-25T12:32:36.665Z,39.49
2023-05-25T12:35:05.284Z,39.17
2023-05-25T12:37:32.677Z,38.92
2023-05-25T12:40:00.240Z,38.81
2023-05-25T12:42:27.621Z,37.57
2023-05-25T12:44:57.894Z,38.84
2023-05-25T12:47:25.615Z,38.71
2023-05-25T12:49:54.202Z,39.39
2023-05-25T12:52:38.367Z,42.34
2023-05-25T12:55:25.758Z,44.02
2023-05-25T12:58:02.772Z,41.40
2023-05-25T13:00:40.150Z,40.78
2023-05-25T13:03:07.854Z,42.99
2023-05-25T13:05:37.481Z,40.97
2023-05-25T13:08:06.124Z,40.59
2023-05-25T13:10:33.315Z,39.93
2023-05-25T13:13:00.827Z,39.78
2023-05-25T13:15:28.411Z,37.86
2023-05-25T13:17:56.456Z,38.01
2023-05-25T13:20:27.634Z,38.01
2023-05-25T13:22:56.013Z,36.50
2023-05-25T13:25:22.927Z,38.44
2023-05-25T13:27:51.288Z,38.81
2023-05-25T13:30:21.844Z,41.24
2023-05-25T13:32:51.093Z,39.59
2023-05-25T13:35:22.795Z,41.87
2023-05-25T13:37:49.524Z,43.92
2023-05-25T13:40:16.258Z,41.03
2023-05-25T13:42:42.835Z,41.66
2023-05-25T13:45:10.022Z,42.19
2023-05-25T13:47:36.959Z,41.11
2023-05-25T13:50:04.600Z,41.15
2023-05-25T13:52:31.178Z,40.37
2023-05-25T13:54:57.636Z,40.41
2023-05-25T13:57:24.095Z,38.56
2023-05-25T13:59:50.646Z,39.45
2023-05-25T14:02:17.204Z,39.70
2023-05-25T14:04:43.749Z,40.14
2023-05-25T14:07:11.037Z,40.46
2023-05-25T14:09:37.665Z,39.62
2023-05-25T14:12:04.561Z,38.83
2023-05-25T14:14:32.466Z,39.26
2023-05-25T14:17:00.283Z,39.62
2023-05-25T14:19:27.104Z,37.64
2023-05-25T14:22:08.070Z,40.50
2023-05-25T14:24:38.881Z,38.40
2023-05-25T14:27:07.230Z,38.77
2023-05-25T14:29:34.143Z,39.13
2023-05-25T14:32:01.200Z,41.34
2023-05-25T14:34:28.001Z,42.44
2023-05-25T14:36:54.609Z,42.32
2023-05-25T14:39:21.155Z,43.20
2023-05-25T14:41:47.693Z,42.85
2023-05-25T14:44:14.309Z,42.74
2023-05-25T14:46:40.915Z,44.16
2023-05-25T14:49:07.456Z,43.16
2023-05-25T14:51:34.085Z,42.16
2023-05-25T14:54:03.483Z,41.43
2023-05-25T14:56:29.989Z,41.74
2023-05-25T14:58:56.506Z,43.30
2023-05-25T15:01:25.239Z,43.92
2023-05-25T15:03:52.562Z,42.81
2023-05-25T15:06:19.443Z,44.68
2023-05-25T15:08:46.077Z,43.54
2023-05-25T15:11:12.612Z,44.69
2023-05-25T15:13:40.736Z,43.76
2023-05-25T15:16:11.222Z,43.45
2023-05-25T15:18:37.808Z,45.75
2023-05-25T15:21:04.355Z,45.47
2023-05-25T15:23:31.518Z,45.70
2023-05-25T15:26:02.974Z,46.36
2023-05-25T15:28:33.082Z,46.99
2023-05-25T15:31:02.542Z,45.95
2023-05-25T15:33:48.407Z,45.34
2023-05-25T15:36:19.183Z,43.66
2023-05-25T15:38:49.075Z,46.99
2023-05-25T15:41:17.263Z,47.61
2023-05-25T15:43:57.988Z,47.89
2023-05-25T15:46:24.978Z,48.22
2023-05-25T15:48:51.566Z,46.54
2023-05-25T15:51:18.131Z,47.87
2023-05-25T15:53:44.863Z,49.84
2023-05-25T15:56:11.452Z,46.55
2023-05-25T15:58:38.062Z,46.13
2023-05-25T16:01:05.106Z,47.69
2023-05-25T16:03:31.791Z,47.68
2023-05-25T16:05:58.710Z,46.99
2023-05-25T16:08:25.377Z,46.61
2023-05-25T16:10:52.116Z,46.93
2023-05-25T16:13:18.738Z,48.52
2023-05-25T16:15:46.672Z,47.66
2023-05-25T16:18:13.642Z,49.19
2023-05-25T16:20:40.870Z,50.88
2023-05-25T16:23:07.776Z,49.42
2023-05-25T16:25:34.516Z,49.09
2023-05-25T16:28:01.196Z,50.25
2023-05-25T16:30:27.999Z,48.01
2023-05-25T16:32:54.964Z,47.28
2023-05-25T16:35:21.915Z,48.03
2023-05-25T16:37:48.942Z,49.41
2023-05-25T16:40:15.931Z,51.73
2023-05-25T16:42:43.185Z,50.15
2023-05-25T16:45:10.144Z,48.89
2023-05-25T16:47:36.926Z,49.00
2023-05-25T16:50:04.052Z,49.17
2023-05-25T16:52:31.040Z,49.54
2023-05-25T16:54:59.309Z,51.96
2023-05-25T16:57:26.297Z,52.37
2023-05-25T16:59:53.834Z,50.92
2023-05-25T17:02:21.069Z,50.08
2023-05-25T17:04:47.819Z,50.95
2023-05-25T17:07:14.560Z,50.19
2023-05-25T17:09:41.256Z,51.02
2023-05-25T17:12:08.223Z,52.75
2023-05-25T17:14:35.044Z,54.09
2023-05-25T17:17:01.869Z,54.04
2023-05-25T17:19:28.696Z,54.02
2023-05-25T17:21:55.745Z,51.67
2023-05-25T17:24:22.427Z,51.19
2023-05-25T17:26:50.184Z,51.90
2023-05-25T17:29:16.943Z,53.68
2023-05-25T17:31:44.050Z,53.93
2023-05-25T17:34:11.668Z,52.65
2023-05-25T17:36:38.280Z,55.46
2023-05-25T17:39:05.783Z,53.04
2023-05-25T17:41:32.324Z,51.88
2023-05-25T17:43:58.881Z,52.46
2023-05-25T17:46:25.456Z,53.74
2023-05-25T17:48:52.059Z,53.07
2023-05-25T17:51:20.669Z,53.21
2023-05-25T17:53:47.557Z,51.87
2023-05-25T17:56:14.093Z,52.65
2023-05-25T17:58:41.094Z,52.99
2023-05-25T18:01:07.652Z,53.45
2023-05-25T18:03:34.279Z,53.32
2023-05-25T18:06:00.932Z,53.85
2023-05-25T18:08:27.440Z,54.62
2023-05-25T18:10:53.942Z,55.69
2023-05-25T18:13:20.431Z,56.26
2023-05-25T18:15:47.165Z,56.41
2023-05-25T18:18:15.639Z,57.17
2023-05-25T18:20:42.912Z,57.98
2023-05-25T18:23:09.913Z,57.28
2023-05-25T18:25:36.440Z,56.67
2023-05-25T18:28:02.966Z,57.40
2023-05-25T18:30:29.523Z,57.79
2023-05-25T18:32:56.129Z,57.95
2023-05-25T18:35:22.811Z,58.48
2023-05-25T18:37:49.370Z,59.02
2023-05-25T18:40:16.473Z,59.89
2023-05-25T18:42:43.138Z,60.98
2023-05-25T18:45:10.133Z,61.47
2023-05-25T18:47:36.858Z,62.13
2023-05-25T18:50:04.214Z,62.41
2023-05-25T18:52:30.780Z,63.11
2023-05-25T18:54:57.321Z,63.17
2023-05-25T18:57:23.842Z,63.68
2023-05-25T18:59:50.376Z,64.11
2023-05-25T19:02:16.929Z,64.25
2023-05-25T19:04:43.532Z,64.75
2023-05-25T19:07:10.004Z,64.53
2023-05-25T19:09:36.550Z,64.43
2023-05-25T19:12:04.649Z,65.17
2023-05-25T19:14:31.908Z,65.03
2023-05-25T19:16:58.951Z,65.30
2023-05-25T19:19:25.645Z,65.80
2023-05-25T19:21:53.841Z,65.95
2023-05-25T19:24:20.526Z,66.08
2023-05-25T19:26:49.593Z,66.15
2023-05-25T19:29:16.466Z,66.85
2023-05-25T19:31:43.021Z,66.75
2023-05-25T19:34:09.839Z,66.61
2023-05-25T19:36:36.710Z,66.93
2023-05-25T19:39:04.866Z,66.63
2023-05-25T19:41:31.414Z,66.64
2023-05-25T19:43:58.014Z,66.64
2023-05-25T19:46:24.658Z,66.66
2023-05-25T19:48:52.638Z,70.85
2023-05-25T19:51:19.143Z,68.10
2023-05-25T19:53:47.933Z,71.37
2023-05-25T19:56:14.480Z,72.29
2023-05-25T19:58:41.050Z,70.96
2023-05-25T20:01:07.734Z,73.59
2023-05-25T20:03:34.492Z,78.26
2023-05-25T20:06:01.240Z,77.83
2023-05-25T20:08:28.108Z,78.17
2023-05-25T20:10:55.662Z,76.75
2023-05-25T20:13:22.244Z,75.96
2023-05-25T20:15:48.890Z,77.97
2023-05-25T20:18:15.540Z,77.38
2023-05-25T20:20:42.085Z,80.97
2023-05-25T20:23:09.668Z,76.11
2023-05-25T20:25:36.256Z,73.56
2023-05-25T20:28:02.885Z,73.06
2023-05-25T20:30:29.588Z,73.60
2023-05-25T20:32:56.172Z,73.70
2023-05-25T20:35:22.740Z,74.28
2023-05-25T20:37:49.221Z,77.12
2023-05-25T20:40:15.897Z,78.85
2023-05-25T20:42:42.405Z,80.08
2023-05-25T20:45:09.291Z,79.37
2023-05-25T20:47:38.500Z,82.71
2023-05-25T20:50:05.448Z,83.13
2023-05-25T20:52:32.063Z,84.41
2023-05-25T20:54:58.519Z,84.76
2023-05-25T20:57:25.139Z,83.76
2023-05-25T20:59:51.863Z,84.39
2023-05-25T21:02:18.527Z,82.09
2023-05-25T21:04:45.467Z,81.42
2023-05-25T21:07:12.176Z,84.50
2023-05-25T21:09:38.667Z,84.33
2023-05-25T21:12:05.768Z,82.90
2023-05-25T21:14:33.531Z,83.10
2023-05-25T21:17:00.033Z,81.64
2023-05-25T21:19:26.578Z,81.86
2023-05-25T21:21:53.230Z,82.84
2023-05-25T21:24:19.786Z,81.74
2023-05-25T21:26:46.326Z,82.04
2023-05-25T21:29:12.933Z,81.86
2023-05-25T21:31:39.537Z,82.02
2023-05-25T21:34:06.149Z,81.78
2023-05-25T21:36:32.673Z,81.51
2023-05-25T21:38:59.312Z,85.80
2023-05-25T21:41:27.183Z,85.83
2023-05-25T21:43:53.703Z,87.62
2023-05-25T21:46:20.281Z,88.19
2023-05-25T21:48:46.769Z,89.20
2023-05-25T21:51:13.282Z,87.86
2023-05-25T21:53:39.849Z,90.01
2023-05-25T21:56:06.373Z,88.62
2023-05-25T21:58:32.857Z,85.04
2023-05-25T22:00:59.402Z,87.83
2023-05-25T22:03:26.161Z,89.37
2023-05-25T22:05:52.762Z,90.23
2023-05-25T22:08:19.257Z,90.96
2023-05-25T22:10:45.841Z,90.44
2023-05-25T22:13:12.377Z,89.82
2023-05-25T22:15:39.014Z,91.25
2023-05-25T22:18:06.304Z,89.94
2023-05-25T22:20:33.089Z,88.07
2023-05-25T22:22:59.945Z,88.42
2023-05-25T22:25:26.572Z,90.52
2023-05-25T22:27:53.133Z,92.88
2023-05-25T22:30:19.722Z,91.86
2023-05-25T22:32:46.269Z,91.49
2023-05-25T22:35:12.759Z,92.69
2023-05-25T22:37:39.308Z,95.37
2023-05-25T22:40:06.537Z,95.37
2023-05-25T22:42:33.095Z,94.86
2023-05-25T22:44:59.669Z,95.87
2023-05-25T22:47:26.170Z,96.76
2023-05-25T22:49:52.708Z,97.93
2023-05-25T22:52:19.509Z,99.67
2023-05-25T22:54:46.068Z,99.26
2023-05-25T22:57:12.650Z,97.47
2023-05-25T22:59:39.221Z,98.49
2023-05-25T23:02:05.965Z,99.71
2023-05-25T23:04:35.522Z,99.77
2023-05-25T23:07:02.127Z,99.21
2023-05-25T23:09:28.698Z,100.00
2023-05-25T23:11:55.495Z,100.00
2023-05-25T23:14:22.026Z,100.00
2023-05-25T23:16:48.755Z,100.00
2023-05-25T23:19:16.828Z,100.00
2023-05-25T23:21:44.099Z,100.00
2023-05-25T23:24:10.797Z,99.28
2023-05-25T23:26:37.291Z,99.76
2023-05-25T23:29:03.869Z,100.00
2023-05-25T23:31:30.598Z,100.00
2023-05-25T23:33:57.258Z,99.69
2023-05-25T23:36:26.259Z,100.00
2023-05-25T23:38:53.157Z,100.00
2023-05-25T23:41:19.783Z,100.00
2023-05-25T23:43:46.728Z,100.00
2023-05-25T23:46:16.262Z,100.00
2023-05-25T23:48:43.421Z,100.00
2023-05-25T23:51:10.671Z,100.00
2023-05-25T23:53:38.779Z,100.00
2023-05-25T23:56:05.597Z,100.00
2023-05-25T23:58:32.137Z,100.00
